Accueil
METAR-TAF:

METAR-TAF

Aéroports :

Henderson-Oxford Airport

Oxford, Caroline du Nord, États-Unis

latitude: 36-21-42N, longitude: 078-31-45W, altitude: 161 m

Observation

Le bulletin a été fait il y a 11 minutes, à 20:15 UTC
Vent 8 kt de ouest/sud-ouest avec des rafales jusqu'à 19 kt
Température 8°C
Humidité 34%
Pression 1014 hPa
Visibilité: 16.1 km
Nuages épars à une hauteur de 6500 ft

METAR: KHNZ 282015Z AUTO 25008G19KT 10SM SCT065 08/M07 A2993 RMK AO2 T00821074

Heure: 15:26 (20:26 UTC)


TAF: absent

Observations et prévisions météorologiques de plus de 4000 aéroports (messages METAR et TAF).

Les stations disponibles sont représentées par des disques jaunes et rouges sur la carte.

Passer la souris dessus pour voir le nom de la station.

Cliquer dessus pour voir les observations et prévisions météorologiques.

Pour changer de carte: cliquez sur les boutons verts avec une croix noire pour zoomer, sur le bouton vert avec un tiret pour effectuer un zoom arrière, ou sur les flèches vertes pour les cartes adjacentes.


METAR-TAF: